Nuerburg, Germany

10:36 PM CEST on August 28, 2015 (GMT +0200)
Spangdahlem Air Base | | Change Station
CLOSE
Current Station
Airport
Location: Spangdahlem,
Elevation: 1198 ft
Nearby Weather Stations

Elev 1198 ft 49.98 °N, 6.70 °E | Updated 38 minutes ago

Partly Cloudy
Partly Cloudy
61 °F
Feels Like 61 °F
N
6
Wind Variable Wind from NE

Today
High -- | Low -- °F
--% Chance of Precip.
Yesterday
High -- | Low -- °F
Precip. -- in
6:39 AM 8:26 PM
Waxing Gibbous, 99% visible
Pressure 30.14 in
Visibility 6.2 miles
Clouds Few 3500 ft
Dew Point 57 °F
Humidity 86%
Rainfall 0.20 in
Snow Depth Not available.
UV 0 out of 12
Pollen Not available.
Air Quality Not available.
Flu Activity Not available.
METAR ETAD 281958Z AUTO 04005KT 9999 FEW035 16/14 A3018 RMK AO2 SLP206 T01630140
Pressure 30.14 in
Visibility 6.2 miles
Clouds Few 3500 ft
Dew Point 57 °F
Humidity 86%
Rainfall 0.20 in
Snow Depth Not available.
UV 0 out of 12
Pollen Not available.
Air Quality Not available.
Flu Activity Not available.
METAR ETAD 281958Z AUTO 04005KT 9999 FEW035 16/14 A3018 RMK AO2 SLP206 T01630140

10-Day Weather Forecast

×

Almanac

Astronomy

Aug. 28, 2015 Rise Set
Actual Time
Civil Twilight
Nautical Twilight
Astronomical Twilight
Moon
Length of Visible Light
Length of Day
Tomorrow will be .
, % of the Moon is Illuminated

Today's Extremes

Country Highs Country Lows

Community

WunderPhotos

Upload Photos

1,850,476 photos uploaded!

WunderBlogs® & News

Nearby

Air Quality

  Air Quality AQ Index Pollutant
Not available.

Snow Depth

Station Depth Elevation

Earthquake Activity

City Distance Mag. Time & Date
Minimum magnitude displayed is 2.5.

Coastal Water Temperatures

Place Temperature

Stations

Nearby Weather Stations

Station Location Temp. Windchill Dew Point Humidity Wind Precip. Elev Updated Type